Carland, Michigan
Current Conditions -  °F | °C
As of 6:13 AM on Tuesday 21 Oct 2014 (Local Time) from KRNP Reporting Station
Overcast Overcast  
Wind Chill: 44°   Ceiling: 1700
Heat Index: 47°   Visibility: 10mi
Dew Point: 43°   Wind: 7mph
Humidity: 87%   Direction: 320°NW
Pressure: 29.95"   Gusts: NA
Location:  43.0981°N, 84.3788°W
Report Text: KRNP 211013Z AUTO 32006KT 10SM OVC017 08/06 A2995 RMK AO2 T00830063
Loading
Personal Weather Stations






























Interactive Weather Map New forecast layout! Learn more

10-Day Weather Forecast

Advertisements
Track Severe Weather on mobile